Tiempo atmosférico en la estación meteorológica de Orihuela, Alacant/Alicante (26 m.)



Fecha
DESCASC
Temp. máxima en grados centígrados (hora)
DESCASC
Temp. mínima en grados centígrados (hora)
DESCASC
Temp. media en grados centígrados
DESCASC
Racha de viento máxima en m/sg (hora)
DESCASC
Velocidad máxima media en intervalos de 10 minutos(hora)
DESCASC
Precipitaciones diarias en mm
DESCASC
Precipitaciones de 00:00 a 06:00 en mm
DESCASC
Precipitaciones de 06:00 a 12:00 en mm
DESCASC
Precipitaciones de 12:00 a 18:00 en mm
DESCASC
Precipitaciones de 18:00 a 24:00 en mm
DESCASC
02-04-2020 19.7 (15:00) 8.7 (07:30) 14.2 10 (15:30) 4.44 (16:00) 22.2 1.8 0 3.6 16.8
01-04-2020 22.1 (15:20) 12.6 (08:00) 17.4 7.22 (16:00) 3.89 (23:59) 6 0 0 0 6
31-03-2020 18.1 (17:30) 11.2 (00:00) 14.7 7.5 (09:10) 3.89 (00:10) 2 0 2 0 0
30-03-2020 17.3 (13:10) 9.1 (00:00) 13.2 10.56 (16:10) 6.67 (16:10) 0 0 0 0 0
29-03-2020 22.5 (17:40) 6.6 (00:00) 14.5 6.67 (18:30) 3.33 (11:30) 0 0 0 0 0
28-03-2020 17.6 (16:50) 8.2 (00:00) 12.9 8.06 (08:50) 5.28 (08:30) 1.8 1.8 0 0 0
27-03-2020 12.3 (16:30) 9.5 (00:00) 10.9 9.17 (17:00) 5 (16:40) 5.6 0 0.4 1 4.2
26-03-2020 20.1 (15:20) 7.7 (00:00) 13.9 9.72 (15:40) 5.28 (17:30) 0.6 0.6 0 0 0
25-03-2020 15.6 (12:40) 10.2 (00:00) 12.9 6.94 (00:50) 4.17 (15:30) 2.8 0 0 1.2 1.6
24-03-2020 13.7 (13:50) 12.4 (00:00) 13 15.28 (12:40) 8.61 (11:40) 53.4 34 11.6 7.6 0.2
23-03-2020 17.3 (13:10) 10.9 (00:00) 14.1 11.94 (16:50) 6.94 (15:10) 15.8 0 3.8 4.4 7.6
22-03-2020 14.9 (14:20) 8.2 (06:40) 11.5 4.44 (02:30) 3.06 (02:30) 11.2 0 0 11 0.2
21-03-2020 17.8 (11:50) 10.7 (00:00) 14.2 8.33 (12:00) 4.72 (12:00) 14.4 0 0 11 3.4
20-03-2020 16.8 (15:00) 11.1 (00:00) 13.9 8.89 (10:10) 5 (17:20) 0 0 0 0 0
19-03-2020 18.5 (12:50) 9.4 (00:00) 13.9 11.11 (13:30) 6.39 (14:50) 0 0 0 0 0
18-03-2020 19.8 (14:00) 9.5 (00:00) 14.6 12.22 (13:40) 7.22 (13:40) 0 0 0 0 0
17-03-2020 17.7 (15:50) 7.8 (00:00) 12.8 10.28 (21:10) 5.83 (23:40) 1 0.2 0.4 0 0.4
16-03-2020 16.8 (12:30) 8.7 (00:00) 12.7 11.11 (13:20) 5.83 (13:20) 0.6 0.4 0 0.2 0
15-03-2020 19.9 (14:40) 11.2 (00:00) 15.5 7.5 (14:30) 4.72 (16:10) 0 0 0 0 0
14-03-2020 22.3 (14:40) 10.2 (00:00) 16.2 7.5 (15:00) 4.17 (15:20) 0 0 0 0 0
13-03-2020 24.2 (13:10) 9.9 (05:50) 17.1 9.17 (13:30) 5.83 (13:30) 0 0 0 0 0
12-03-2020 27.2 (15:00) 9.7 (00:00) 18.5 5.83 (16:50) 3.89 (16:40) 0 0 0 0 0
11-03-2020 30.6 (15:10) 10.7 (00:00) 20.7 8.89 (16:10) 4.72 (16:40) 0 0 0 0 0
10-03-2020 23.4 (16:30) 9.7 (00:00) 16.5 8.89 (00:50) 4.72 (00:50) 0 0 0 0 0
09-03-2020 24.5 (16:00) 15.1 (00:00) 19.8 10.28 (15:30) 5.83 (15:20) 0 0 0 0 0
08-03-2020 25 (16:40) 6.8 (00:00) 15.9 8.61 (12:50) 4.17 (12:50) 0 0 0 0 0
07-03-2020 21.2 (17:30) 9.9 (00:00) 15.6 14.44 (06:10) 7.5 (09:50) 0 0 0 0 0
06-03-2020 19.1 (14:50) 12.9 (00:00) 16 20 (13:50) 9.17 (11:00) 0 0 0 0 0
05-03-2020 26.2 (15:40) 10.8 (00:00) 18.5 15 (17:20) 8.33 (17:20) 0 0 0 0 0

Gráficas

Temp. máximas Temp. mínimas Temp. medias Precipitaciones Rachas de viento máximas Velocidades máximas media en intervalos de 10 minutos

Datos horarios

Fecha y hora oficial Temperatura (ºC) Velocidad del viento (km/h) Dirección del viento Racha (km/h) Dirección de racha Precipitación (mm) Presión (hPa) Tendencia (hPa) Humedad (%)
2020-04-03 23:00:00 12.5 5 Nordeste 8 Nordeste 0 -- -- 76
2020-04-03 22:00:00 13 4 Nordeste 6 Nordeste 0 -- -- 73
2020-04-03 21:00:00 14.2 5 Este 14 Este 0 -- -- 66
2020-04-03 20:00:00 16.4 8 Este 22 Este 0 -- -- 56
2020-04-03 19:00:00 17.6 12 Este 27 Este 0 -- -- 50
2020-04-03 18:00:00 18.6 11 Este 23 Este 0 -- -- 45
2020-04-03 17:00:00 18.7 12 Este 25 Este 0 -- -- 46
2020-04-03 16:00:00 18.8 12 Este 24 Este 0 -- -- 45
2020-04-03 15:00:00 19.8 4 Sudeste 12 Sur 0 -- -- 41
2020-04-03 14:00:00 19.2 5 Sudeste 15 Este 0 -- -- 44
2020-04-03 13:00:00 18.8 5 Sudeste 13 Este 0 -- -- 54
2020-04-03 12:00:00 16.8 3 Sur 14 Oeste 0 -- -- 60
2020-04-03 11:00:00 14.9 9 Oeste 19 Sudoeste 0 -- -- 68
2020-04-03 10:00:00 13.3 11 Sudoeste 20 Oeste 0 -- -- 75
2020-04-03 09:00:00 11.8 11 Sudoeste 16 Sudoeste 0 -- -- 86
2020-04-03 08:00:00 10.9 3 Sudoeste 13 Sudoeste 0 -- -- 89
2020-04-03 07:00:00 11 8 Sudoeste 12 Sudoeste 0 -- -- 90
2020-04-03 06:00:00 10.7 5 Sudoeste 10 Sudoeste 0 -- -- 91
2020-04-03 05:00:00 10.8 2 Sur 9 Sudoeste 0 -- -- 91
2020-04-03 04:00:00 11.1 3 Sudoeste 7 Sudoeste 0 -- -- 91
2020-04-03 03:00:00 10.9 2 Sudoeste 6 Sudoeste 0.2 -- -- 91
2020-04-03 02:00:00 10.9 2 Sudoeste 9 Sudoeste 0 -- -- 91
2020-04-03 01:00:00 11 0 Calma 4 Sudeste 0 -- -- 90
2020-04-03 00:00:00 10.6 3 Sudoeste 5 Oeste 0 -- -- 90
2020-04-02 23:00:00 10.8 0 Calma 6 Nordeste 0.2 -- -- 89
2020-04-02 22:00:00 11.1 4 Nordeste 22 Nordeste 16.4 -- -- 86
2020-04-02 21:00:00 13.9 5 Nordeste 12 Este 0 -- -- 83
2020-04-02 20:00:00 14.4 6 Este 14 Este 0 -- -- 81
2020-04-02 19:00:00 14.8 7 Este 18 Este 0.2 -- -- 83
2020-04-02 18:00:00 14.6 0 Calma 13 Sur 1 -- -- 81
2020-04-02 17:00:00 15.2 8 Sudeste 24 Sudeste 2.6 -- -- 75
2020-04-02 16:00:00 17.8 16 Sudeste 36 Este 0 -- -- 61
2020-04-02 15:00:00 19.7 8 Sudeste 15 Este 0 -- -- 44
2020-04-02 14:00:00 18.4 4 Sur 12 Sudoeste 0 -- -- 45
2020-04-02 13:00:00 17.9 4 Sur 10 Sudoeste 0 -- -- 51
2020-04-02 12:00:00 15.7 4 Oeste 10 Nordeste 0 -- -- 64
2020-04-02 11:00:00 13.4 2 Sur 10 Sudoeste 0 -- -- 83
2020-04-02 10:00:00 10.7 6 Sudoeste 9 Sudoeste 0 -- -- 91
2020-04-02 09:00:00 9.3 2 Sur 6 Oeste 0 -- -- 91
2020-04-02 08:00:00 9 3 Oeste 7 Oeste 0 -- -- 91
2020-04-02 07:00:00 9.3 2 Sudoeste 9 Sudoeste 0 -- -- 90
2020-04-02 06:00:00 9.9 2 Sur 10 Oeste 0 -- -- 90
2020-04-02 05:00:00 10.4 9 Sudoeste 19 Sudoeste 0 -- -- 89
2020-04-02 04:00:00 10.9 10 Sudoeste 18 Sudoeste 0 -- -- 88
2020-04-02 03:00:00 11.7 0 Calma 16 Norte 0 -- -- 86
2020-04-02 02:00:00 11.9 9 Nordeste 16 Nordeste 0.2 -- -- 88
2020-04-02 01:00:00 12.7 10 Noroeste 35 Sudoeste 1.6 -- -- 74
2020-04-02 00:00:00 13 14 Noroeste 26 Noroeste 1.8 -- -- 80
2020-04-01 23:00:00 14.6 8 Sudoeste 21 Norte 0.2 -- -- 73
2020-04-01 22:00:00 14.2 11 Norte 21 Norte 1.8 -- -- 83
2020-04-01 21:00:00 16 9 Sudoeste 23 Sudoeste 2.2 -- -- 76
2020-04-01 20:00:00 17.9 5 Oeste 9 Sudoeste 0 -- -- 66
2020-04-01 19:00:00 18.9 3 Sudeste 17 Sur 0 -- -- 62
2020-04-01 18:00:00 19.9 5 Sudoeste 21 Sudeste 0 -- -- 57
2020-04-01 17:00:00 19.2 7 Sur 26 Sur 0 -- -- 59
2020-04-01 16:00:00 20.9 10 Sudeste 26 Sudeste 0 -- -- 57
2020-04-01 15:00:00 21.4 6 Sur 22 Sudeste 0 -- -- 47
2020-04-01 14:00:00 20.7 6 Sudoeste 16 Sudoeste 0 -- -- 47
2020-04-01 13:00:00 19.3 6 Sudoeste 19 Sudoeste 0 -- -- 56
2020-04-01 12:00:00 18.1 5 Sur 14 Sudoeste 0 -- -- 63
2020-04-01 11:00:00 16.3 4 Sudoeste 17 Sudoeste 0 -- -- 76
2020-04-01 10:00:00 14.2 10 Sudoeste 14 Sudoeste 0 -- -- 85
2020-04-01 09:00:00 13.1 3 Sudoeste 5 Sudoeste 0 -- -- 93
2020-04-01 08:00:00 12.6 0 Calma 4 Sudoeste 0 -- -- 92
2020-04-01 07:00:00 13.2 3 Oeste 10 Nordeste 0 -- -- 92
2020-04-01 06:00:00 13.1 7 Nordeste 12 Nordeste 0 -- -- 91
2020-04-01 05:00:00 13.6 0 Calma 4 Este 0 -- -- 90
2020-04-01 04:00:00 13.9 4 Este 8 Nordeste 0 -- -- 89
2020-04-01 03:00:00 14 3 Nordeste 5 Norte 0 -- -- 90
2020-04-01 02:00:00 13.7 4 Norte 7 Nordeste 0 -- -- 91
2020-04-01 01:00:00 13.5 2 Sudeste 7 Nordeste 0 -- -- 90
2020-04-01 00:00:00 13.5 4 Nordeste 8 Nordeste 0 -- -- 89
2020-03-31 23:00:00 13.9 4 Este 8 Este 0 -- -- 87
2020-03-31 22:00:00 14.5 5 Este 10 Nordeste 0 -- -- 84
2020-03-31 21:00:00 15.2 5 Nordeste 8 Nordeste 0 -- -- 81
2020-03-31 20:00:00 16.6 5 Este 13 Este 0 -- -- 74
2020-03-31 19:00:00 17.3 7 Este 17 Este 0 -- -- 70
2020-03-31 18:00:00 17.9 9 Este 25 Sudeste 0 -- -- 66
2020-03-31 17:00:00 17.7 8 Este 15 Sudeste 0 -- -- 67
2020-03-31 16:00:00 17.6 3 Noroeste 9 Nordeste 0 -- -- 65
2020-03-31 15:00:00 17.5 3 Nordeste 15 Este 0 -- -- 67
2020-03-31 14:00:00 16.8 6 Este 12 Este 0 -- -- 69
2020-03-31 13:00:00 15.3 5 Oeste 9 Sudoeste 0 -- -- 75
2020-03-31 12:00:00 14.6 4 Sudoeste 10 Sudoeste 0 -- -- 79
2020-03-31 11:00:00 13.9 5 Sudeste 14 Nordeste 0 -- -- 81
2020-03-31 10:00:00 12.3 7 Nordeste 27 Este 0.4 -- -- 88
2020-03-31 09:00:00 11.6 5 Sudeste 18 Sudoeste 1.6 -- -- 87
2020-03-31 08:00:00 11.7 4 Sur 12 Este 0 -- -- 79
2020-03-31 07:00:00 11.6 6 Sudeste 13 Este 0 -- -- 79
2020-03-31 06:00:00 11.3 7 Este 15 Nordeste 0 -- -- 81
2020-03-31 05:00:00 11.3 6 Este 10 Este 0 -- -- 82
2020-03-31 04:00:00 11.7 5 Este 11 Nordeste 0 -- -- 82
2020-03-31 03:00:00 12 7 Nordeste 15 Nordeste 0 -- -- 80
2020-03-31 02:00:00 12.1 9 Este 21 Nordeste 0 -- -- 78
2020-03-31 01:00:00 12.2 13 Nordeste 24 Este 0 -- -- 77
2020-03-31 00:00:00 12.1 15 Nordeste 27 Este 0 -- -- 76
2020-03-30 23:00:00 12.1 16 Nordeste 30 Este 0 -- -- 76
2020-03-30 22:00:00 12.4 14 Nordeste 30 Nordeste 0 -- -- 72
2020-03-30 21:00:00 12.6 16 Nordeste 32 Nordeste 0 -- -- 73
2020-03-30 20:00:00 12.9 13 Nordeste 30 Nordeste 0 -- -- 72
2020-03-30 19:00:00 13.3 19 Nordeste 35 Este 0 -- -- 70
2020-03-30 18:00:00 13.8 19 Este 36 Este 0 -- -- 71
2020-03-30 17:00:00 14.4 23 Este 38 Este 0 -- -- 71
2020-03-30 16:00:00 15.4 19 Nordeste 36 Nordeste 0 -- -- 69
2020-03-30 15:00:00 16.3 22 Este 35 Este 0 -- -- 69
2020-03-30 14:00:00 16.8 20 Este 36 Este 0 -- -- 69
2020-03-30 13:00:00 17 20 Nordeste 37 Este 0 -- -- 71
2020-03-30 12:00:00 15.6 17 Nordeste 30 Nordeste 0 -- -- 70
2020-03-30 11:00:00 13.8 6 Este 9 Este 0 -- -- 74
2020-03-30 10:00:00 11.9 2 Sur 11 Oeste 0 -- -- 81
2020-03-30 09:00:00 10.2 3 Oeste 9 Oeste 0 -- -- 85
2020-03-30 08:00:00 9.6 2 Oeste 5 Sudoeste 0 -- -- 87
2020-03-30 07:00:00 9.3 0 Calma 8 Oeste 0 -- -- 86
2020-03-30 06:00:00 9.7 4 Oeste 15 Sudoeste 0 -- -- 85
2020-03-30 05:00:00 10.1 6 Sudoeste 9 Sudoeste 0 -- -- 84
2020-03-30 04:00:00 9.9 0 Calma 5 Sudoeste 0 -- -- 84
2020-03-30 03:00:00 10.8 2 Sudoeste 5 Sudoeste 0 -- -- 80
2020-03-30 02:00:00 11.6 2 Sudoeste 4 Sudoeste 0 -- -- 77
2020-03-30 01:00:00 12.8 3 Sur 8 Oeste 0 -- -- 71
2020-03-30 00:00:00 13.4 3 Sudoeste 9 Oeste 0 -- -- 68
2020-03-29 23:00:00 13.5 3 Sudoeste 7 Sudoeste 0 -- -- 68
2020-03-29 22:00:00 14.4 3 Sudoeste 6 Sudoeste 0 -- -- 61
2020-03-29 21:00:00 16.2 3 Oeste 10 Sudoeste 0 -- -- 59
2020-03-29 20:00:00 18.7 3 Sudoeste 17 Sudeste 0 -- -- 52
2020-03-29 19:00:00 20.1 9 Sur 24 Sudeste 0 -- -- 48
2020-03-29 18:00:00 21.9 9 Sudeste 22 Sudeste 0 -- -- 42
2020-03-29 17:00:00 22.2 9 Sudoeste 20 Sudoeste 0 -- -- 31
2020-03-29 16:00:00 21.8 6 Sur 18 Oeste 0 -- -- 32
2020-03-29 15:00:00 20.7 6 Sudoeste 18 Oeste 0 -- -- 36
2020-03-29 14:00:00 19.7 8 Sudoeste 20 Sudoeste 0 -- -- 40
2020-03-29 13:00:00 17.7 9 Sudoeste 17 Oeste 0 -- -- 50
2020-03-29 12:00:00 15.5 11 Sudoeste 19 Sudoeste 0 -- -- 56
2020-03-29 11:00:00 13 6 Sudoeste 18 Sudoeste 0 -- -- 65
2020-03-29 10:00:00 10.7 6 Sudoeste 14 Sudoeste 0 -- -- 77
2020-03-29 09:00:00 7.9 4 Sur 9 Sudoeste 0 -- -- 87
2020-03-29 08:00:00 6.6 3 Sudoeste 8 Sudoeste 0 -- -- 90
2020-03-29 07:00:00 7.2 5 Sudoeste 12 Sudoeste 0 -- -- 89
2020-03-29 06:00:00 7.4 5 Sudoeste 12 Sudoeste 0 -- -- 89
2020-03-29 05:00:00 7.5 7 Sudoeste 12 Sudoeste 0 -- -- 91
2020-03-29 03:00:00 7.7 0 Calma 7 Sudoeste 0 -- -- 88
2020-03-29 01:00:00 8.2 4 Sudoeste 7 Sudoeste 0 -- -- 87
2020-03-29 00:00:00 9.1 3 Sudoeste 6 Sudoeste 0 -- -- 86
2020-03-28 23:00:00 9.5 0 Calma 4 Sudoeste 0 -- -- 84
2020-03-28 22:00:00 10.5 0 Calma 4 Norte 0 -- -- 79
2020-03-28 21:00:00 11.4 4 Nordeste 5 Nordeste 0 -- -- 76
2020-03-28 20:00:00 12.1 0 Calma 7 Nordeste 0 -- -- 74
2020-03-28 19:00:00 14.3 5 Este 14 Este 0 -- -- 62
2020-03-28 18:00:00 15.1 8 Este 26 Este 0 -- -- 59
2020-03-28 17:00:00 16.7 17 Este 28 Nordeste 0 -- -- 55
2020-03-28 16:00:00 17 5 Sudoeste 18 Sudoeste 0 -- -- 43
2020-03-28 15:00:00 17 7 Noroeste 20 Noroeste 0 -- -- 46
2020-03-28 14:00:00 17.1 8 Sudoeste 19 Oeste 0 -- -- 43
2020-03-28 13:00:00 15.9 8 Sudoeste 18 Sudoeste 0 -- -- 49
2020-03-28 12:00:00 14.4 9 Sudoeste 21 Sudoeste 0 -- -- 54
2020-03-28 11:00:00 13 15 Sudoeste 23 Sudoeste 0 -- -- 61
2020-03-28 10:00:00 10.5 13 Sudoeste 23 Sudoeste 0 -- -- 75
2020-03-28 09:00:00 9.2 13 Sudoeste 29 Sudoeste 0 -- -- 81
2020-03-28 08:00:00 8.4 13 Sudoeste 21 Sudoeste 0 -- -- 86
2020-03-28 07:00:00 8.5 11 Sudoeste 17 Sudoeste 0 -- -- 86
2020-03-28 06:00:00 9 6 Sudoeste 13 Sudoeste 0 -- -- 89
2020-03-28 05:00:00 9 4 Sudoeste 10 Sudoeste 0 -- -- 91
2020-03-28 04:00:00 9.3 3 Oeste 6 Noroeste 0 -- -- 92
2020-03-28 03:00:00 9.3 2 Noroeste 5 Noroeste 0 -- -- 91
2020-03-28 02:00:00 9.4 0 Calma 8 Sudoeste 0.4 -- -- 91
2020-03-28 01:00:00 9.5 3 Oeste 6 Sudoeste 1.4 -- -- 90
2020-03-28 00:00:00 9.5 2 Sur 9 Sudeste 0.8 -- -- 88
2020-03-27 23:00:00 9.5 3 Este 6 Nordeste 1.4 -- -- 86
2020-03-27 22:00:00 9.8 0 Calma 7 Sudoeste 1.6 -- -- 87
2020-03-27 21:00:00 10.3 3 Sudeste 23 Nordeste 0.2 -- -- 81
2020-03-27 20:00:00 10.6 13 Nordeste 32 Nordeste 0 -- -- 76
2020-03-27 19:00:00 10.5 13 Nordeste 30 Nordeste 0.2 -- -- 78
2020-03-27 18:00:00 11 17 Nordeste 32 Nordeste 0 -- -- 75
2020-03-27 17:00:00 11.6 16 Nordeste 33 Nordeste 0 -- -- 77
2020-03-27 16:00:00 12.1 16 Nordeste 30 Nordeste 0 -- -- 76
2020-03-27 15:00:00 10.2 11 Nordeste 21 Nordeste 0.4 -- -- 85
2020-03-27 14:00:00 10.1 3 Norte 18 Nordeste 0.6 -- -- 84
2020-03-27 13:00:00 10.9 8 Nordeste 16 Norte 0 -- -- 76
2020-03-27 12:00:00 11.1 6 Nordeste 15 Nordeste 0 -- -- 73
2020-03-27 11:00:00 10.6 4 Nordeste 14 Nordeste 0 -- -- 76
2020-03-27 10:00:00 10.4 6 Este 12 Nordeste 0 -- -- 82
2020-03-27 09:00:00 10.2 4 Este 7 Nordeste 0.2 -- -- 83
2020-03-27 08:00:00 10.1 0 Calma 8 Sudeste 0.2 -- -- 79
2020-03-27 07:00:00 10.1 4 Nordeste 7 Nordeste 0 -- -- 77
2020-03-27 06:00:00 10.2 3 Nordeste 8 Sudeste 0 -- -- 78
2020-03-27 05:00:00 10.4 3 Este 9 Este 0 -- -- 74
2020-03-27 04:00:00 10.6 6 Este 11 Este 0 -- -- 72
2020-03-27 03:00:00 10.8 4 Nordeste 14 Este 0 -- -- 71
2020-03-27 02:00:00 11.5 10 Este 19 Este 0 -- -- 65
2020-03-27 01:00:00 11.6 6 Nordeste 16 Nordeste 0 -- -- 72
2020-03-27 00:00:00 11.5 6 Nordeste 12 Nordeste 0 -- -- 70
2020-03-26 23:00:00 11.7 6 Nordeste 10 Nordeste 0 -- -- 66
2020-03-26 22:00:00 11.5 4 Nordeste 9 Nordeste 0 -- -- 72
2020-03-26 21:00:00 11.7 5 Nordeste 11 Este 0 -- -- 71
2020-03-26 20:00:00 12.9 9 Nordeste 25 Nordeste 0 -- -- 65
2020-03-26 19:00:00 14.3 11 Este 29 Este 0 -- -- 66
2020-03-26 18:00:00 16.2 17 Este 31 Este 0 -- -- 61
2020-03-26 17:00:00 19.6 17 Norte 31 Nordeste 0 -- -- 43
2020-03-26 16:00:00 19.9 14 Noroeste 35 Noroeste 0 -- -- 30
2020-03-26 15:00:00 19.8 12 Noroeste 29 Oeste 0 -- -- 28
2020-03-26 14:00:00 19.2 14 Noroeste 31 Noroeste 0 -- -- 34
2020-03-26 13:00:00 18.4 16 Noroeste 33 Noroeste 0 -- -- 33
2020-03-26 12:00:00 15.7 6 Sudoeste 18 Sudoeste 0 -- -- 69
2020-03-26 11:00:00 13.8 8 Sudoeste 15 Sudoeste 0 -- -- 80
2020-03-26 10:00:00 11.4 7 Sudoeste 15 Sudoeste 0 -- -- 90
2020-03-26 09:00:00 9.5 8 Sudoeste 19 Sudoeste 0 -- -- 93
2020-03-26 08:00:00 8.8 8 Sudoeste 15 Sudoeste 0 -- -- 94
2020-03-26 07:00:00 7.7 4 Oeste 9 Sudoeste 0 -- -- 93
2020-03-26 06:00:00 7.9 3 Sudoeste 4 Sudoeste 0.2 -- -- 93
2020-03-26 05:00:00 8.4 0 Calma 3 Oeste 0 -- -- 92
2020-03-26 04:00:00 8.9 0 Calma 4 Norte 0 -- -- 91
2020-03-26 03:00:00 9.8 0 Calma 8 Este 0.4 -- -- 91
2020-03-26 02:00:00 9.8 6 Este 13 Nordeste 0 -- -- 91
2020-03-26 01:00:00 10.1 5 Este 9 Este 0 -- -- 90
2020-03-26 00:00:00 10.3 4 Este 9 Este 0 -- -- 90
2020-03-25 23:00:00 10.3 4 Nordeste 8 Nordeste 0 -- -- 89
2020-03-25 22:00:00 10.4 2 Norte 13 Norte 1.2 -- -- 88
2020-03-25 21:00:00 11 10 Norte 15 Norte 0.4 -- -- 81
2020-03-25 20:00:00 11.8 8 Nordeste 15 Nordeste 0 -- -- 75
2020-03-25 19:00:00 12.8 7 Este 21 Este 0 -- -- 68
2020-03-25 18:00:00 13.7 9 Este 20 Este 0 -- -- 64
2020-03-25 17:00:00 14.6 12 Este 19 Este 0 -- -- 61
2020-03-25 16:00:00 13.9 9 Este 24 Este 0 -- -- 63
2020-03-25 15:00:00 13.5 13 Este 19 Este 1.2 -- -- 69
2020-03-25 14:00:00 14.4 6 Nordeste 18 Nordeste 0 -- -- 60
2020-03-25 13:00:00 15.5 9 Este 24 Este 0 -- -- 55
2020-03-25 12:00:00 14.7 13 Este 22 Este 0 -- -- 58
2020-03-25 11:00:00 14.7 8 Norte 14 Noroeste 0 -- -- 54
2020-03-25 10:00:00 13.8 2 Sudoeste 7 Sudeste 0 -- -- 63
2020-03-25 09:00:00 12.8 2 Sur 9 Este 0 -- -- 73
2020-03-25 08:00:00 10.4 4 Sudoeste 10 Sudoeste 0 -- -- 82
2020-03-25 07:00:00 10.3 3 Sur 9 Este 0 -- -- 83
2020-03-25 06:00:00 10.9 4 Sudeste 10 Sudoeste 0 -- -- 79
2020-03-25 05:00:00 11.3 2 Sudoeste 7 Sudoeste 0 -- -- 73
2020-03-25 04:00:00 11.8 4 Norte 17 Nordeste 0 -- -- 68
2020-03-25 03:00:00 12.2 7 Nordeste 21 Nordeste 0 -- -- 67
2020-03-25 02:00:00 12.4 9 Nordeste 24 Nordeste 0 -- -- 70
2020-03-25 01:00:00 12.6 10 Nordeste 25 Norte 0 -- -- 72
2020-03-25 00:00:00 12.7 10 Nordeste 28 Nordeste 0 -- -- 72
2020-03-24 23:00:00 13 13 Nordeste 26 Norte 0 -- -- 68
2020-03-24 22:00:00 12.8 14 Nordeste 30 Nordeste 0 -- -- 82
2020-03-24 21:00:00 12.9 13 Nordeste 30 Nordeste 0 -- -- 82
2020-03-24 20:00:00 13.3 15 Nordeste 33 Nordeste 0 -- -- 80
2020-03-24 19:00:00 12.9 15 Nordeste 25 Nordeste 0.2 -- -- 89
2020-03-24 18:00:00 13.1 5 Este 19 Nordeste 0.2 -- -- 88
2020-03-24 17:00:00 13.4 10 Este 26 Nordeste 0.6 -- -- 88
2020-03-24 16:00:00 13.4 15 Nordeste 41 Nordeste 1.4 -- -- 88
2020-03-24 15:00:00 13.2 19 Nordeste 45 Nordeste 2.4 -- -- 88
2020-03-24 14:00:00 13.4 26 Nordeste 50 Este 1.4 -- -- 87
2020-03-24 13:00:00 13.6 22 Nordeste 55 Nordeste 1.6 -- -- 88
2020-03-24 12:00:00 13.4 24 Nordeste 53 Nordeste 1.2 -- -- 89
2020-03-24 11:00:00 13.3 21 Nordeste 51 Nordeste 3.2 -- -- 89
2020-03-24 10:00:00 13.4 24 Nordeste 51 Nordeste 1.4 -- -- 85
2020-03-24 09:00:00 13.2 24 Norte 46 Nordeste 1.2 -- -- 80
2020-03-24 08:00:00 12.8 18 Norte 37 Norte 1.2 -- -- 81
2020-03-24 07:00:00 12.5 19 Norte 43 Nordeste 3.4 -- -- 81
2020-03-24 06:00:00 12.6 18 Nordeste 45 Nordeste 4.6 -- -- 82
2020-03-24 05:00:00 12.9 19 Norte 42 Nordeste 5.4 -- -- 84
2020-03-24 04:00:00 13 23 Nordeste 44 Nordeste 7.2 -- -- 84
2020-03-24 03:00:00 13.2 16 Nordeste 41 Nordeste 5.4 -- -- 84
2020-03-24 02:00:00 13.4 21 Nordeste 39 Nordeste 6.8 -- -- 84
2020-03-24 01:00:00 13.4 12 Nordeste 22 Nordeste 4.6 -- -- 90
2020-03-24 00:00:00 13.5 10 Este 30 Nordeste 4.4 -- -- 89
2020-03-23 23:00:00 13.7 14 Nordeste 29 Nordeste 2.4 -- -- 88
2020-03-23 22:00:00 14 14 Nordeste 32 Nordeste 0 -- -- 85
2020-03-23 21:00:00 14 16 Nordeste 36 Nordeste 0 -- -- 88
2020-03-23 20:00:00 14 15 Nordeste 32 Nordeste 0.4 -- -- 89
2020-03-23 19:00:00 14.2 13 Nordeste 27 Nordeste 0.4 -- -- 88
2020-03-23 18:00:00 14.5 15 Nordeste 30 Nordeste 3.4 -- -- 89
2020-03-23 17:00:00 14.7 21 Este 43 Nordeste 1 -- -- 87
2020-03-23 16:00:00 15.7 17 Nordeste 42 Este 0 -- -- 79
2020-03-23 15:00:00 16.9 24 Este 37 Este 0 -- -- 73
2020-03-23 14:00:00 17 18 Nordeste 36 Este 0 -- -- 74
2020-03-23 13:00:00 16.9 11 Nordeste 22 Nordeste 0 -- -- 71
2020-03-23 12:00:00 15 8 Nordeste 17 Nordeste 0 -- -- 78
2020-03-23 11:00:00 12.8 2 Oeste 17 Oeste 2.2 -- -- 93
2020-03-23 10:00:00 11.8 2 Sur 10 Sudoeste 1.2 -- -- 91
2020-03-23 09:00:00 11.5 6 Sudoeste 11 Sudoeste 0.4 -- -- 91
2020-03-23 08:00:00 11.1 2 Sudoeste 4 Sudoeste 0 -- -- 92
2020-03-23 07:00:00 11 0 Calma 6 Sudoeste 0 -- -- 92
2020-03-23 06:00:00 11 4 Sudoeste 6 Sudoeste 0 -- -- 93
2020-03-23 05:00:00 11.1 3 Sudoeste 6 Sudoeste 0 -- -- 93
2020-03-23 04:00:00 11.3 2 Sudoeste 4 Sudoeste 0 -- -- 93
2020-03-23 03:00:00 11.3 5 Sudoeste 8 Sudoeste 0 -- -- 93
2020-03-23 02:00:00 11.5 0 Calma 5 Sudoeste 0 -- -- 92
2020-03-23 01:00:00 11.5 0 Calma 4 Sudoeste 0 -- -- 92
2020-03-23 00:00:00 11.5 0 Calma 5 Oeste 0 -- -- 92
2020-03-22 23:00:00 11.4 4 Oeste 9 Oeste 0 -- -- 92
2020-03-22 22:00:00 11.8 0 Calma 4 Sudoeste 0 -- -- 91
2020-03-22 21:00:00 12 0 Calma 3 Norte 0 -- -- 91
2020-03-22 20:00:00 12.2 0 Calma 4 Sudoeste 0 -- -- 91
2020-03-22 19:00:00 12.2 0 Calma 14 Este 0.2 -- -- 90
2020-03-22 18:00:00 12.1 7 Este 16 Nordeste 0.8 -- -- 90
2020-03-22 17:00:00 12.2 4 Nordeste 8 Nordeste 6 -- -- 89
2020-03-22 16:00:00 12.9 3 Sudoeste 15 Oeste 1 -- -- 89
2020-03-22 15:00:00 13.9 5 Sudoeste 12 Sudoeste 3.2 -- -- 82
2020-03-22 14:00:00 14.6 4 Norte 7 Nordeste 0 -- -- 74
2020-03-22 13:00:00 14.3 4 Nordeste 7 Nordeste 0 -- -- 73
2020-03-22 12:00:00 13.8 2 Sur 12 Sudoeste 0 -- -- 74
2020-03-22 11:00:00 12.6 4 Oeste 9 Oeste 0 -- -- 80
2020-03-22 10:00:00 11.9 5 Oeste 10 Oeste 0 -- -- 81
2020-03-22 09:00:00 10.1 4 Sudoeste 10 Sudoeste 0 -- -- 89
2020-03-22 08:00:00 8.9 0 Calma 5 Sudeste 0 -- -- 92
2020-03-22 07:00:00 8.2 0 Calma 7 Oeste 0 -- -- 92
2020-03-22 06:00:00 8.4 0 Calma 9 Sudoeste 0 -- -- 91
2020-03-22 05:00:00 8.9 4 Sudoeste 9 Sudoeste 0 -- -- 90
2020-03-22 04:00:00 9.7 0 Calma 9 Sudoeste 0 -- -- 90
2020-03-22 03:00:00 10 6 Sudoeste 16 Sudoeste 0 -- -- 90
2020-03-22 02:00:00 10.2 5 Sudoeste 13 Sudoeste 0 -- -- 91
2020-03-22 01:00:00 10.1 5 Sudoeste 12 Sudoeste 0 -- -- 90
2020-03-22 00:00:00 10.7 3 Oeste 10 Sudoeste 0 -- -- 89
2020-03-21 23:00:00 11.2 2 Sudoeste 14 Sudoeste 0 -- -- 90
2020-03-21 22:00:00 11.3 3 Sudoeste 15 Oeste 0 -- -- 89
2020-03-21 21:00:00 11 8 Sudoeste 25 Oeste 1 -- -- 90
2020-03-21 20:00:00 11.2 12 Sudoeste 21 Sudoeste 1.6 -- -- 91
2020-03-21 19:00:00 11.7 8 Sudoeste 15 Sudoeste 0.8 -- -- 89
2020-03-21 18:00:00 12.3 3 Este 13 Sudoeste 4.6 -- -- 89
2020-03-21 17:00:00 12.5 6 Oeste 14 Oeste 4.4 -- -- 87
2020-03-21 16:00:00 14.6 6 Sudeste 26 Este 2 -- -- 81
2020-03-21 15:00:00 16.1 15 Este 28 Este 0 -- -- 69
2020-03-21 14:00:00 16 14 Este 27 Este 0 -- -- 69
2020-03-21 13:00:00 16.6 12 Este 26 Este 0 -- -- 66
2020-03-21 12:00:00 17.4 17 Este 30 Este 0 -- -- 59
2020-03-21 11:00:00 16.6 9 Nordeste 23 Nordeste 0 -- -- 65
2020-03-21 10:00:00 15.4 0 Calma 4 Nordeste 0 -- -- 69
2020-03-21 09:00:00 13.2 2 Norte 4 Noroeste 0 -- -- 79
2020-03-21 08:00:00 12.3 0 Calma 5 Este 0 -- -- 83
2020-03-21 07:00:00 12.5 0 Calma 5 Oeste 0 -- -- 80
2020-03-21 06:00:00 12.5 3 Sudoeste 5 Sudoeste 0 -- -- 81
2020-03-21 05:00:00 12.5 0 Calma 12 Sudoeste 0 -- -- 81
2020-03-21 04:00:00 12 3 Sudeste 6 Sudeste 0 -- -- 83
2020-03-21 03:00:00 12.2 0 Calma 8 Sudeste 0 -- -- 82
2020-03-21 02:00:00 12.6 0 Calma 5 Noroeste 0 -- -- 79
2020-03-21 01:00:00 13.9 0 Calma 8 Nordeste 0 -- -- 75
2020-03-21 00:00:00 14.3 5 Este 13 Nordeste 0 -- -- 72
2020-03-20 23:00:00 14.5 8 Nordeste 19 Este 0 -- -- 70
2020-03-20 22:00:00 14.6 6 Este 23 Este 0 -- -- 73
2020-03-20 21:00:00 14.6 6 Este 18 Nordeste 0 -- -- 74
2020-03-20 20:00:00 14.6 9 Este 30 Este 0 -- -- 76
2020-03-20 19:00:00 15.1 13 Nordeste 31 Este 0 -- -- 71
2020-03-20 18:00:00 16.2 15 Este 30 Este 0 -- -- 59
2020-03-20 17:00:00 16.5 14 Nordeste 29 Nordeste 0 -- -- 58
2020-03-20 16:00:00 16.4 14 Nordeste 24 Nordeste 0 -- -- 56
2020-03-20 15:00:00 16.8 10 Nordeste 24 Este 0 -- -- 54
2020-03-20 14:00:00 15.9 11 Nordeste 30 Nordeste 0 -- -- 57
2020-03-20 13:00:00 15.5 14 Nordeste 30 Nordeste 0 -- -- 57
2020-03-20 12:00:00 15.9 15 Nordeste 30 Nordeste 0 -- -- 55
2020-03-20 11:00:00 15.6 13 Nordeste 32 Nordeste 0 -- -- 59
2020-03-20 10:00:00 15.5 17 Nordeste 31 Este 0 -- -- 56
2020-03-20 09:00:00 12.9 3 Sudoeste 6 Sudoeste 0 -- -- 75
2020-03-20 08:00:00 11.2 2 Sur 7 Sur 0 -- -- 80
2020-03-20 07:00:00 12 3 Sudeste 10 Este 0 -- -- 76
2020-03-20 06:00:00 12.5 3 Sudeste 15 Nordeste 0 -- -- 74
2020-03-20 05:00:00 13.8 9 Nordeste 23 Este 0 -- -- 66
2020-03-20 04:00:00 13.7 10 Nordeste 22 Este 0 -- -- 71
2020-03-20 03:00:00 13.6 10 Nordeste 27 Este 0 -- -- 72
2020-03-20 02:00:00 13.5 10 Nordeste 20 Nordeste 0 -- -- 79
2020-03-20 01:00:00 12.6 5 Este 18 Nordeste 0 -- -- 84
2020-03-20 00:00:00 13.1 8 Nordeste 14 Nordeste 0 -- -- 82
2020-03-19 23:00:00 13.2 4 Este 21 Nordeste 0 -- -- 80
2020-03-19 22:00:00 14.3 11 Nordeste 21 Nordeste 0 -- -- 75
2020-03-19 21:00:00 14.4 10 Nordeste 20 Nordeste 0 -- -- 76
2020-03-19 20:00:00 14.7 9 Nordeste 22 Nordeste 0 -- -- 74
2020-03-19 19:00:00 15.4 13 Nordeste 30 Este 0 -- -- 71
2020-03-19 18:00:00 16.3 19 Nordeste 35 Nordeste 0 -- -- 64
2020-03-19 17:00:00 17.2 20 Este 37 Este 0 -- -- 58
2020-03-19 16:00:00 18 21 Este 38 Este 0 -- -- 56
2020-03-19 15:00:00 18.1 21 Este 40 Este 0 -- -- 58
2020-03-19 14:00:00 18.5 23 Este 40 Este 0 -- -- 55
2020-03-19 13:00:00 18.5 20 Este 39 Este 0 -- -- 53
2020-03-19 12:00:00 17.2 19 Nordeste 35 Nordeste 0 -- -- 61
2020-03-19 11:00:00 17 18 Nordeste 35 Nordeste 0 -- -- 63
2020-03-19 10:00:00 15.8 17 Nordeste 30 Este 0 -- -- 66
2020-03-19 09:00:00 13 3 Sudeste 5 Sudeste 0 -- -- 77
2020-03-19 08:00:00 10 2 Sur 5 Sudeste 0 -- -- 85
2020-03-19 07:00:00 9.4 0 Calma 5 Sudeste 0 -- -- 85
2020-03-19 06:00:00 9.8 0 Calma 5 Sudoeste 0 -- -- 83
2020-03-19 05:00:00 11 0 Calma 7 Sudoeste 0 -- -- 79
2020-03-19 04:00:00 12.4 0 Calma 7 Sudeste 0 -- -- 77
2020-03-19 03:00:00 13 0 Calma 4 Oeste 0 -- -- 77
2020-03-19 02:00:00 13.3 0 Calma 4 Sudeste 0 -- -- 78
2020-03-19 01:00:00 13.4 0 Calma 4 Norte 0 -- -- 77
2020-03-19 00:00:00 13.3 0 Calma 5 Este 0 -- -- 77
2020-03-18 23:00:00 14.1 3 Este 15 Nordeste 0 -- -- 73
2020-03-18 22:00:00 15.2 9 Este 16 Nordeste 0 -- -- 67
2020-03-18 21:00:00 15 9 Nordeste 18 Nordeste 0 -- -- 67
2020-03-18 20:00:00 15.1 6 Este 23 Este 0 -- -- 68
2020-03-18 19:00:00 16.1 17 Este 28 Este 0 -- -- 63
2020-03-18 18:00:00 17.4 15 Este 33 Nordeste 0 -- -- 59
2020-03-18 17:00:00 18.1 22 Este 39 Este 0 -- -- 56
2020-03-18 16:00:00 19.1 21 Este 44 Este 0 -- -- 52
2020-03-18 15:00:00 19.5 23 Este 40 Este 0 -- -- 49
2020-03-18 14:00:00 19.8 21 Este 44 Este 0 -- -- 49
2020-03-18 13:00:00 19.4 21 Este 40 Nordeste 0 -- -- 52
2020-03-18 12:00:00 19 18 Nordeste 33 Nordeste 0 -- -- 50
2020-03-18 11:00:00 18.3 17 Nordeste 32 Nordeste 0 -- -- 55
2020-03-18 10:00:00 15.9 8 Nordeste 15 Nordeste 0 -- -- 71
2020-03-18 09:00:00 12.4 2 Sudoeste 8 Norte 0 -- -- 86
2020-03-18 08:00:00 10 2 Oeste 6 Nordeste 0 -- -- 90
2020-03-18 07:00:00 10.1 2 Sur 7 Sudoeste 0 -- -- 89
2020-03-18 06:00:00 10.5 3 Sudoeste 10 Sudoeste 0 -- -- 87
2020-03-18 05:00:00 10.4 0 Calma 8 Sudoeste 0 -- -- 87
2020-03-18 04:00:00 11.4 2 Sudoeste 5 Sudoeste 0 -- -- 84
2020-03-18 03:00:00 12.7 2 Noroeste 8 Este 0 -- -- 81
2020-03-18 02:00:00 13.8 5 Este 31 Nordeste 0 -- -- 77
2020-03-18 01:00:00 14.9 14 Nordeste 39 Nordeste 0 -- -- 74
2020-03-18 00:00:00 15 15 Nordeste 36 Nordeste 0 -- -- 76
2020-03-17 23:00:00 15 13 Nordeste 37 Nordeste 0.2 -- -- 76
2020-03-17 22:00:00 15.4 19 Nordeste 37 Nordeste 0 -- -- 74
2020-03-17 21:00:00 15.8 17 Nordeste 30 Nordeste 0 -- -- 79
2020-03-17 20:00:00 15.7 9 Nordeste 19 Este 0 -- -- 84
2020-03-17 19:00:00 16 11 Este 20 Este 0.2 -- -- 84
2020-03-17 18:00:00 17.4 5 Este 13 Este 0 -- -- 76
2020-03-17 17:00:00 17.4 4 Este 10 Este 0 -- -- 69
2020-03-17 16:00:00 17.7 4 Este 10 Este 0 -- -- 63
2020-03-17 15:00:00 17.1 6 Sudoeste 9 Sudoeste 0 -- -- 62
2020-03-17 14:00:00 16.7 3 Sur 11 Sudoeste 0 -- -- 64
2020-03-17 13:00:00 14.9 0 Calma 10 Sudoeste 0 -- -- 71
2020-03-17 12:00:00 13.2 6 Sudoeste 13 Sudoeste 0 -- -- 80
2020-03-17 11:00:00 11.3 6 Sudoeste 12 Oeste 0.2 -- -- 84
2020-03-17 10:00:00 10.6 0 Calma 6 Sudeste 0.2 -- -- 84
2020-03-17 09:00:00 9.7 2 Sudeste 5 Oeste 0 -- -- 83
2020-03-17 08:00:00 8.8 3 Sudoeste 5 Sudoeste 0 -- -- 85
2020-03-17 07:00:00 9.1 2 Sudoeste 4 Oeste 0 -- -- 83
2020-03-17 06:00:00 9 2 Sur 4 Sur 0 -- -- 82
2020-03-17 05:00:00 8.6 0 Calma 5 Oeste 0 -- -- 85
2020-03-17 04:00:00 8.3 0 Calma 4 Sudoeste 0.2 -- -- 86
2020-03-17 03:00:00 8.3 3 Sudoeste 5 Oeste 0 -- -- 85
2020-03-17 02:00:00 8 2 Sudoeste 5 Oeste 0 -- -- 84
2020-03-17 01:00:00 8.3 3 Sudoeste 8 Sudoeste 0 -- -- 83
2020-03-17 00:00:00 9 3 Sudoeste 10 Sudoeste 0 -- -- 83
2020-03-16 23:00:00 8.7 4 Sudoeste 8 Sudoeste 0 -- -- 84
2020-03-16 22:00:00 9.5 5 Sudoeste 14 Sudoeste 0 -- -- 81
2020-03-16 21:00:00 10.1 5 Sudoeste 14 Sudoeste 0 -- -- 73
2020-03-16 20:00:00 10.3 3 Sur 19 Sudoeste 0 -- -- 75
2020-03-16 19:00:00 10.8 3 Sudoeste 13 Oeste 0 -- -- 72
2020-03-16 18:00:00 10.9 9 Oeste 20 Oeste 0.2 -- -- 78
2020-03-16 17:00:00 12.4 9 Oeste 21 Oeste 0 -- -- 61
2020-03-16 16:00:00 13.1 3 Noroeste 24 Noroeste 0 -- -- 63
2020-03-16 15:00:00 13.5 11 Sudoeste 23 Oeste 0 -- -- 66
2020-03-16 14:00:00 14.7 4 Sudoeste 40 Noroeste 0 -- -- 63
2020-03-16 13:00:00 14.8 14 Oeste 24 Oeste 0 -- -- 70
2020-03-16 12:00:00 16.5 3 Sudoeste 6 Oeste 0 -- -- 77
2020-03-16 11:00:00 15.5 4 Nordeste 9 Norte 0 -- -- 83
2020-03-16 10:00:00 15.4 4 Nordeste 10 Nordeste 0 -- -- 84
2020-03-16 09:00:00 14.8 4 Nordeste 6 Nordeste 0 -- -- 86
2020-03-16 08:00:00 14.2 3 Nordeste 6 Nordeste 0 -- -- 87
2020-03-16 07:00:00 14.1 2 Norte 9 Nordeste 0 -- -- 87
2020-03-16 06:00:00 14.1 4 Nordeste 8 Este 0 -- -- 87
2020-03-16 05:00:00 14.3 3 Este 9 Este 0 -- -- 87
2020-03-16 04:00:00 14.4 4 Este 8 Norte 0 -- -- 87
2020-03-16 03:00:00 14.4 4 Norte 7 Norte 0.2 -- -- 86
2020-03-16 02:00:00 14.7 2 Este 9 Nordeste 0.2 -- -- 86
2020-03-16 01:00:00 14.8 4 Nordeste 9 Norte 0 -- -- 81
2020-03-16 00:00:00 14.9 4 Nordeste 13 Este 0 -- -- 80
2020-03-15 23:00:00 15.1 8 Este 17 Nordeste 0 -- -- 79
2020-03-15 22:00:00 15 6 Este 13 Nordeste 0 -- -- 79
2020-03-15 21:00:00 15.1 6 Este 12 Este 0 -- -- 78
2020-03-15 20:00:00 15.6 8 Este 16 Nordeste 0 -- -- 73
2020-03-15 19:00:00 16.6 9 Este 19 Este 0 -- -- 69
2020-03-15 18:00:00 17.2 12 Este 22 Este 0 -- -- 66
2020-03-15 17:00:00 18.5 12 Este 26 Nordeste 0 -- -- 59
2020-03-15 16:00:00 18.8 15 Nordeste 27 Este 0 -- -- 61
2020-03-15 15:00:00 19.9 15 Este 27 Este 0 -- -- 55
2020-03-15 14:00:00 19.6 10 Este 26 Este 0 -- -- 54
2020-03-15 13:00:00 18.7 12 Nordeste 24 Este 0 -- -- 56
2020-03-15 12:00:00 17.9 6 Norte 18 Este 0 -- -- 60
2020-03-15 11:00:00 16.9 4 Nordeste 16 Este 0 -- -- 65
2020-03-15 10:00:00 15.9 7 Este 12 Nordeste 0 -- -- 74
2020-03-15 09:00:00 13.9 5 Este 9 Este 0 -- -- 84
2020-03-15 08:00:00 11.5 0 Calma 2 Norte 0 -- -- 90
2020-03-15 07:00:00 11.4 2 Oeste 4 Sudeste 0 -- -- 87
2020-03-15 06:00:00 12.7 0 Calma 4 Sudeste 0 -- -- 86
2020-03-15 05:00:00 13.9 0 Calma 2 Norte 0 -- -- 86
2020-03-15 04:00:00 14 0 Calma 4 Oeste 0 -- -- 85
2020-03-15 03:00:00 14.5 2 Noroeste 6 Sudeste 0 -- -- 85
2020-03-15 02:00:00 14.5 2 Este 5 Este 0 -- -- 85
2020-03-15 01:00:00 14.4 2 Este 6 Nordeste 0 -- -- 85
2020-03-15 00:00:00 14.4 3 Este 6 Este 0 -- -- 84
2020-03-14 23:00:00 14.6 4 Este 8 Este 0 -- -- 83
2020-03-14 22:00:00 14.6 5 Este 10 Nordeste 0 -- -- 83
2020-03-14 21:00:00 14.3 5 Este 9 Nordeste 0 -- -- 81
2020-03-14 20:00:00 15.2 6 Este 11 Este 0 -- -- 77
2020-03-14 19:00:00 16.9 7 Este 19 Este 0 -- -- 69
2020-03-14 18:00:00 18.9 10 Este 23 Este 0 -- -- 59
2020-03-14 17:00:00 20.1 15 Este 25 Nordeste 0 -- -- 58
2020-03-14 16:00:00 21.1 12 Este 27 Este 0 -- -- 56
2020-03-14 15:00:00 22.1 14 Este 27 Este 0 -- -- 53
2020-03-14 14:00:00 21.6 6 Nordeste 17 Este 0 -- -- 49
2020-03-14 13:00:00 20.8 7 Sudeste 18 Este 0 -- -- 53
2020-03-14 12:00:00 19.4 6 Este 11 Nordeste 0 -- -- 58
2020-03-14 11:00:00 17.5 4 Sudoeste 8 Sudoeste 0 -- -- 66
2020-03-14 10:00:00 15.2 2 Sudoeste 5 Sudoeste 0 -- -- 71
2020-03-14 09:00:00 13 2 Sudoeste 6 Oeste 0 -- -- 82
2020-03-14 08:00:00 10.8 3 Oeste 4 Oeste 0 -- -- 86
2020-03-14 07:00:00 10.6 0 Calma 4 Sudoeste 0 -- -- 82
2020-03-14 06:00:00 10.7 2 Sudoeste 4 Sudoeste 0 -- -- 85
2020-03-14 05:00:00 10.7 2 Sudoeste 4 Sudoeste 0 -- -- 83
2020-03-14 04:00:00 11.3 0 Calma 4 Noroeste 0 -- -- 83
2020-03-14 03:00:00 12.4 0 Calma 5 Sudoeste 0 -- -- 79
2020-03-14 02:00:00 12.8 3 Sudoeste 5 Sudoeste 0 -- -- 78
2020-03-14 01:00:00 13.5 3 Oeste 8 Sudeste 0 -- -- 77
2020-03-14 00:00:00 14.1 4 Sudeste 5 Sudeste 0 -- -- 75
2020-03-13 23:00:00 14.3 0 Calma 4 Oeste 0 -- -- 75
2020-03-13 22:00:00 14.8 0 Calma 8 Este 0 -- -- 72
2020-03-13 21:00:00 15.9 4 Nordeste 14 Este 0 -- -- 69
2020-03-13 20:00:00 16.7 6 Este 14 Este 0 -- -- 62
2020-03-13 19:00:00 17.4 9 Este 26 Este 0 -- -- 59
2020-03-13 18:00:00 18.4 15 Este 27 Este 0 -- -- 51
2020-03-13 17:00:00 19.4 15 Este 28 Este 0 -- -- 47
2020-03-13 16:00:00 20.2 15 Nordeste 29 Este 0 -- -- 43
2020-03-13 15:00:00 21.5 17 Este 31 Este 0 -- -- 39
2020-03-13 14:00:00 22.5 18 Este 33 Este 0 -- -- 42
2020-03-13 13:00:00 24 4 Sudoeste 14 Sudeste 0 -- -- 38
2020-03-13 12:00:00 23.7 5 Sudeste 10 Sur 0 -- -- 40
2020-03-13 11:00:00 19.7 4 Sudoeste 10 Sudoeste 0 -- -- 46
2020-03-13 10:00:00 16.6 5 Sudoeste 10 Sudoeste 0 -- -- 60
2020-03-13 09:00:00 13.6 6 Sudoeste 9 Sudoeste 0 -- -- 68
2020-03-13 08:00:00 10.3 3 Oeste 6 Sudoeste 0 -- -- 80
2020-03-13 07:00:00 10.1 0 Calma 3 Oeste 0 -- -- 81
2020-03-13 06:00:00 9.9 0 Calma 3 Sudeste 0 -- -- 82
2020-03-13 05:00:00 10.2 2 Sudoeste 4 Oeste 0 -- -- 80
2020-03-13 04:00:00 10.8 0 Calma 4 Oeste 0 -- -- 77
2020-03-13 03:00:00 12.1 2 Sudoeste 4 Sudoeste 0 -- -- 73
2020-03-13 02:00:00 11.9 0 Calma 8 Sudoeste 0 -- -- 74
2020-03-13 01:00:00 11.9 0 Calma 5 Oeste 0 -- -- 76
2020-03-13 00:00:00 13 2 Sudoeste 4 Sudoeste 0 -- -- 75
2020-03-12 23:00:00 14.3 0 Calma 6 Nordeste 0 -- -- 70
2020-03-12 22:00:00 16.2 6 Este 9 Este 0 -- -- 63
2020-03-12 21:00:00 17.5 5 Nordeste 11 Nordeste 0 -- -- 54
2020-03-12 20:00:00 18.7 6 Nordeste 13 Nordeste 0 -- -- 50
2020-03-12 19:00:00 20.8 8 Nordeste 16 Este 0 -- -- 44
2020-03-12 18:00:00 23.6 9 Este 21 Este 0 -- -- 37
2020-03-12 17:00:00 25.8 12 Este 21 Este 0 -- -- 33
2020-03-12 16:00:00 26.7 12 Este 19 Nordeste 0 -- -- 35
2020-03-12 15:00:00 27.2 12 Este 18 Este 0 -- -- 34
2020-03-12 14:00:00 26.7 6 Nordeste 14 Nordeste 0 -- -- 33
2020-03-12 13:00:00 25.1 3 Este 8 Nordeste 0 -- -- 35
2020-03-12 12:00:00 22.2 0 Calma 8 Sudoeste 0 -- -- 46
2020-03-12 11:00:00 19.1 4 Sudoeste 10 Sudoeste 0 -- -- 56
2020-03-12 10:00:00 15.9 6 Sudoeste 10 Sudoeste 0 -- -- 67
2020-03-12 09:00:00 12.7 3 Sudoeste 6 Sudoeste 0 -- -- 77
2020-03-12 08:00:00 10.4 3 Sudoeste 4 Sudoeste 0 -- -- 86
2020-03-12 07:00:00 9.7 0 Calma 5 Sudoeste 0 -- -- 85
2020-03-12 06:00:00 10.7 3 Sudoeste 5 Sudoeste 0 -- -- 84
2020-03-12 05:00:00 10.9 2 Sudoeste 4 Sudoeste 0 -- -- 86
2020-03-12 04:00:00 10.4 0 Calma 4 Sudoeste 0 -- -- 86
2020-03-12 03:00:00 11.6 2 Sudoeste 7 Sudoeste 0 -- -- 85
2020-03-12 02:00:00 12.3 0 Calma 5 Este 0 -- -- 82
2020-03-12 01:00:00 12.9 2 Nordeste 5 Este 0 -- -- 84
2020-03-12 00:00:00 13.8 0 Calma 6 Sudeste 0 -- -- 80
2020-03-11 23:00:00 14.9 4 Este 6 Sudeste 0 -- -- 77
2020-03-11 22:00:00 15.9 5 Norte 12 Norte 0 -- -- 72
2020-03-11 21:00:00 16.7 8 Nordeste 21 Este 0 -- -- 70
2020-03-11 20:00:00 18.1 11 Nordeste 24 Este 0 -- -- 68
2020-03-11 19:00:00 21 14 Este 24 Este 0 -- -- 54
2020-03-11 18:00:00 23.6 15 Nordeste 30 Nordeste 0 -- -- 43
2020-03-11 17:00:00 25.9 13 Nordeste 32 Nordeste 0 -- -- 40
2020-03-11 16:00:00 29.1 16 Nordeste 27 Nordeste 0 -- -- 36
2020-03-11 15:00:00 30.5 6 Sudeste 12 Oeste 0 -- -- 24
2020-03-11 14:00:00 29.2 4 Sudoeste 15 Sudoeste 0 -- -- 27
2020-03-11 13:00:00 26.8 7 Sudoeste 18 Sudoeste 0 -- -- 34
2020-03-11 12:00:00 24.3 8 Sudoeste 20 Sudoeste 0 -- -- 38
2020-03-11 11:00:00 21.2 11 Sudoeste 18 Sudoeste 0 -- -- 44
2020-03-11 10:00:00 17.8 7 Sudoeste 16 Sudoeste 0 -- -- 54
2020-03-11 09:00:00 14.1 7 Sudoeste 12 Sudoeste 0 -- -- 67
2020-03-11 08:00:00 11.3 4 Oeste 10 Sudoeste 0 -- -- 76
2020-03-11 07:00:00 11 3 Sudoeste 10 Sudoeste 0 -- -- 77
2020-03-11 06:00:00 11 5 Oeste 12 Sudoeste 0 -- -- 77
2020-03-11 05:00:00 11.3 8 Oeste 14 Oeste 0 -- -- 75
2020-03-11 04:00:00 11.3 4 Oeste 10 Sudoeste 0 -- -- 74
2020-03-11 03:00:00 12.2 4 Sudoeste 16 Sudoeste 0 -- -- 71
2020-03-11 02:00:00 12.6 10 Sudoeste 15 Sudoeste 0 -- -- 69
2020-03-11 01:00:00 13.1 6 Sudoeste 13 Oeste 0 -- -- 67
2020-03-11 00:00:00 14.3 6 Oeste 13 Sudoeste 0 -- -- 62
2020-03-10 23:00:00 14 5 Oeste 9 Oeste 0 -- -- 65
2020-03-10 22:00:00 14 3 Oeste 6 Oeste 0 -- -- 66
2020-03-10 21:00:00 15.3 2 Sudeste 6 Sudeste 0 -- -- 59
2020-03-10 20:00:00 17 3 Sudeste 12 Sudeste 0 -- -- 54
2020-03-10 19:00:00 19.3 4 Sudeste 15 Sur 0 -- -- 48
2020-03-10 18:00:00 21.1 6 Sur 19 Sudeste 0 -- -- 44
2020-03-10 17:00:00 22.3 10 Sudeste 21 Sudeste 0 -- -- 41
2020-03-10 16:00:00 23 9 Norte 18 Nordeste 0 -- -- 41
2020-03-10 15:00:00 23.2 4 Nordeste 12 Sur 0 -- -- 34
2020-03-10 14:00:00 22.4 3 Sudoeste 11 Sudeste 0 -- -- 32
2020-03-10 13:00:00 21.7 6 Sudeste 15 Sudeste 0 -- -- 32
2020-03-10 12:00:00 20.3 5 Este 9 Este 0 -- -- 34
2020-03-10 11:00:00 19 3 Sur 9 Sur 0 -- -- 36
2020-03-10 10:00:00 16.2 5 Sudoeste 9 Sudoeste 0 -- -- 47
2020-03-10 09:00:00 13.2 0 Calma 7 Sudoeste 0 -- -- 62
2020-03-10 08:00:00 11.1 3 Sudoeste 6 Oeste 0 -- -- 67
2020-03-10 07:00:00 10 0 Calma 7 Noroeste 0 -- -- 70
2020-03-10 06:00:00 11.5 3 Sur 6 Oeste 0 -- -- 70
2020-03-10 05:00:00 12.2 2 Oeste 7 Este 0 -- -- 71
2020-03-10 04:00:00 14.1 0 Calma 12 Nordeste 0 -- -- 61
2020-03-10 03:00:00 16.7 6 Nordeste 17 Noroeste 0 -- -- 37
2020-03-10 02:00:00 18.4 12 Noroeste 32 Noroeste 0 -- -- 31
2020-03-10 01:00:00 19 15 Noroeste 32 Oeste 0 -- -- 29
2020-03-10 00:00:00 17.8 9 Noroeste 18 Sudoeste 0 -- -- 34
2020-03-09 23:00:00 19.2 3 Sudoeste 30 Sudoeste 0 -- -- 31
2020-03-09 22:00:00 20.6 7 Oeste 21 Noroeste 0 -- -- 27
2020-03-09 21:00:00 20.8 5 Noroeste 23 Sudoeste 0 -- -- 26
2020-03-09 20:00:00 22.2 8 Noroeste 26 Noroeste 0 -- -- 24
2020-03-09 19:00:00 23 17 Noroeste 32 Noroeste 0 -- -- 21
2020-03-09 18:00:00 23.7 14 Noroeste 30 Noroeste 0 -- -- 20
2020-03-09 17:00:00 23.7 12 Oeste 27 Noroeste 0 -- -- 21
2020-03-09 16:00:00 24.5 8 Noroeste 37 Noroeste 0 -- -- 21
2020-03-09 15:00:00 23 13 Oeste 36 Oeste 0 -- -- 24
2020-03-09 14:00:00 20.7 4 Nordeste 19 Norte 0 -- -- 32
2020-03-09 13:00:00 19.9 4 Sudoeste 17 Sudoeste 0 -- -- 36
2020-03-09 12:00:00 19.3 7 Oeste 22 Sudoeste 0 -- -- 39
2020-03-09 11:00:00 18.4 10 Oeste 24 Oeste 0 -- -- 43
2020-03-09 10:00:00 17.6 10 Oeste 19 Oeste 0 -- -- 44
2020-03-09 09:00:00 15.9 9 Sudoeste 19 Sudoeste 0 -- -- 50
2020-03-09 08:00:00 15.1 4 Sudeste 24 Oeste 0 -- -- 50
2020-03-09 07:00:00 15.4 13 Sudoeste 27 Noroeste 0 -- -- 49
2020-03-09 06:00:00 17 12 Oeste 31 Noroeste 0 -- -- 44
2020-03-09 05:00:00 15.5 6 Oeste 21 Noroeste 0 -- -- 47
2020-03-09 04:00:00 16.9 10 Sudoeste 21 Sudoeste 0 -- -- 39
2020-03-09 03:00:00 16.9 4 Sudoeste 37 Oeste 0 -- -- 38
2020-03-09 02:00:00 17.4 13 Oeste 28 Oeste 0 -- -- 35
2020-03-09 01:00:00 16.1 15 Sudoeste 33 Sudoeste 0 -- -- 53
2020-03-09 00:00:00 15.4 3 Sudoeste 11 Sudeste 0 -- -- 62
2020-03-08 23:00:00 14.9 2 Sudoeste 6 Sudoeste 0 -- -- 63
2020-03-08 22:00:00 15.2 0 Calma 12 Sudoeste 0 -- -- 60
2020-03-08 21:00:00 16.6 5 Sudoeste 12 Sudoeste 0 -- -- 54
2020-03-08 20:00:00 18.2 3 Sudoeste 5 Sudoeste 0 -- -- 45
2020-03-08 19:00:00 20.3 2 Sudoeste 18 Sur 0 -- -- 41
2020-03-08 18:00:00 22.6 5 Sur 22 Sur 0 -- -- 34
2020-03-08 17:00:00 24.5 5 Sur 22 Sudeste 0 -- -- 28
2020-03-08 16:00:00 24.3 5 Sudoeste 22 Sudoeste 0 -- -- 23
2020-03-08 15:00:00 23.1 7 Sudoeste 21 Sudoeste 0 -- -- 26
2020-03-08 14:00:00 21.8 11 Sudoeste 26 Sudoeste 0 -- -- 29
2020-03-08 13:00:00 20.4 15 Oeste 31 Oeste 0 -- -- 32
2020-03-08 12:00:00 19.7 13 Oeste 25 Sudoeste 0 -- -- 34
2020-03-08 11:00:00 18.1 12 Oeste 23 Sudoeste 0 -- -- 38
2020-03-08 10:00:00 15.1 5 Sudoeste 21 Sudoeste 0 -- -- 49
2020-03-08 09:00:00 11.9 6 Sudoeste 12 Sudoeste 0 -- -- 60
2020-03-08 08:00:00 8.7 5 Sudoeste 12 Sudoeste 0 -- -- 71
2020-03-08 07:00:00 7.9 4 Sur 14 Oeste 0 -- -- 76
2020-03-08 06:00:00 7.8 6 Oeste 12 Sudoeste 0 -- -- 80
2020-03-08 05:00:00 7.2 3 Sudoeste 6 Noroeste 0 -- -- 78
2020-03-08 04:00:00 8.1 2 Oeste 10 Sudoeste 0 -- -- 75
2020-03-08 03:00:00 8.5 6 Sudoeste 12 Sudoeste 0 -- -- 73
2020-03-08 02:00:00 9.1 3 Sudoeste 10 Sudoeste 0 -- -- 69
2020-03-08 01:00:00 9.2 2 Oeste 5 Sudoeste 0 -- -- 75
2020-03-08 00:00:00 9.9 2 Sudoeste 5 Sudeste 0 -- -- 71
2020-03-07 23:00:00 11 2 Sudeste 4 Sudeste 0 -- -- 66
2020-03-07 22:00:00 12.6 3 Oeste 8 Este 0 -- -- 60
2020-03-07 21:00:00 14.3 6 Nordeste 16 Nordeste 0 -- -- 53
2020-03-07 20:00:00 15.8 4 Nordeste 20 Oeste 0 -- -- 46
2020-03-07 19:00:00 19.3 11 Oeste 33 Sudoeste 0 -- -- 32
2020-03-07 18:00:00 21 8 Oeste 22 Sudoeste 0 -- -- 29
2020-03-07 17:00:00 20.4 6 Oeste 26 Oeste 0 -- -- 29
2020-03-07 16:00:00 20 10 Oeste 37 Noroeste 0 -- -- 29
2020-03-07 15:00:00 19.6 12 Sudoeste 33 Oeste 0 -- -- 28
2020-03-07 14:00:00 18.5 18 Oeste 42 Oeste 0 -- -- 29
2020-03-07 13:00:00 17.9 18 Noroeste 35 Noroeste 0 -- -- 30
2020-03-07 12:00:00 16.5 14 Oeste 40 Noroeste 0 -- -- 32
2020-03-07 11:00:00 15.2 18 Noroeste 45 Noroeste 0 -- -- 32
2020-03-07 10:00:00 13.8 27 Noroeste 47 Noroeste 0 -- -- 34
2020-03-07 09:00:00 12.8 15 Noroeste 48 Norte 0 -- -- 35
2020-03-07 08:00:00 12.8 14 Oeste 44 Oeste 0 -- -- 33
2020-03-07 07:00:00 13 12 Noroeste 52 Noroeste 0 -- -- 32
2020-03-07 06:00:00 12.9 24 Noroeste 49 Noroeste 0 -- -- 33
2020-03-07 05:00:00 13.2 13 Sudoeste 35 Oeste 0 -- -- 31
2020-03-07 04:00:00 13.9 15 Oeste 37 Oeste 0 -- -- 29
2020-03-07 03:00:00 13.9 14 Oeste 28 Noroeste 0 -- -- 30
2020-03-07 02:00:00 14.2 10 Noroeste 36 Oeste 0 -- -- 28
2020-03-07 01:00:00 14.6 16 Oeste 33 Oeste 0 -- -- 29
2020-03-07 00:00:00 14.6 9 Noroeste 34 Oeste 0 -- -- 27
2020-03-06 23:00:00 15.3 8 Oeste 30 Sudoeste 0 -- -- 26
2020-03-06 22:00:00 16 14 Oeste 40 Oeste 0 -- -- 25
2020-03-06 21:00:00 16.3 8 Oeste 38 Sudoeste 0 -- -- 26
2020-03-06 20:00:00 16.7 18 Oeste 43 Oeste 0 -- -- 26
2020-03-06 19:00:00 17 14 Noroeste 48 Noroeste 0 -- -- 26
2020-03-06 18:00:00 18.2 24 Noroeste 52 Oeste 0 -- -- 25
2020-03-06 17:00:00 18.8 21 Oeste 52 Oeste 0 -- -- 23
2020-03-06 16:00:00 18 28 Oeste 55 Oeste 0 -- -- 25
2020-03-06 15:00:00 19.1 28 Oeste 52 Oeste 0 -- -- 24
2020-03-06 14:00:00 16.6 29 Noroeste 72 Oeste 0 -- -- 43
2020-03-06 13:00:00 17.5 27 Oeste 58 Oeste 0 -- -- 36
2020-03-06 12:00:00 17.5 27 Oeste 59 Oeste 0 -- -- 37
2020-03-06 11:00:00 16.7 33 Oeste 58 Oeste 0 -- -- 38
2020-03-06 10:00:00 15.7 15 Oeste 35 Oeste 0 -- -- 43
2020-03-06 09:00:00 14.4 15 Oeste 28 Sudoeste 0 -- -- 43
2020-03-06 08:00:00 12.9 10 Sudoeste 24 Oeste 0 -- -- 47
2020-03-06 07:00:00 14 10 Oeste 27 Oeste 0 -- -- 42
2020-03-06 06:00:00 15 14 Oeste 41 Oeste 0 -- -- 41
2020-03-06 05:00:00 15.8 17 Oeste 35 Oeste 0 -- -- 41
2020-03-06 04:00:00 13.8 5 Sudoeste 24 Norte 0 -- -- 49
2020-03-06 03:00:00 14.4 6 Sudoeste 12 Sudoeste 0 -- -- 47
2020-03-06 02:00:00 15.7 6 Sudoeste 16 Sudoeste 0 -- -- 46
2020-03-06 01:00:00 15.9 8 Oeste 20 Sudoeste 0 -- -- 45
2020-03-06 00:00:00 17.1 11 Oeste 23 Oeste 0 -- -- 43
2020-03-05 23:00:00 17.6 15 Oeste 38 Oeste 0 -- -- 41
2020-03-05 22:00:00 18.5 15 Oeste 37 Oeste 0 -- -- 39
2020-03-05 21:00:00 19.1 14 Oeste 41 Oeste 0 -- -- 39
2020-03-05 20:00:00 20 17 Oeste 44 Oeste 0 -- -- 36
2020-03-05 19:00:00 21.3 24 Oeste 53 Oeste 0 -- -- 31
2020-03-05 18:00:00 22.1 17 Oeste 54 Oeste 0 -- -- 38
2020-03-05 17:00:00 23.7 22 Oeste 46 Oeste 0 -- -- 37
2020-03-05 16:00:00 25.1 21 Oeste 38 Oeste 0 -- -- 34
2020-03-05 15:00:00 25.5 9 Oeste 29 Oeste 0 -- -- 31
2020-03-05 14:00:00 24.5 14 Sudoeste 28 Sudoeste 0 -- -- 34
2020-03-05 13:00:00 22.6 11 Sudoeste 23 Sudoeste 0 -- -- 37
2020-03-05 12:00:00 21.1 9 Oeste 24 Oeste 0 -- -- 40
2020-03-05 11:00:00 19 13 Sudoeste 23 Sudoeste 0 -- -- 46
2020-03-05 10:00:00 16.9 9 Sudoeste 23 Sudoeste 0 -- -- 53
2020-03-05 09:00:00 14 9 Sudoeste 18 Sudoeste 0 -- -- 62
2020-03-05 08:00:00 12 5 Sur 12 Sur 0 -- -- 69
2020-03-05 07:00:00 10.9 2 Oeste 6 Sudoeste 0 -- -- 73
2020-03-05 06:00:00 11.8 0 Calma 7 Sudoeste 0 -- -- 69
2020-03-05 05:00:00 12.6 3 Sudoeste 10 Sudoeste 0 -- -- 67
2020-03-05 04:00:00 13.7 3 Sudoeste 16 Sur 0 -- -- 63
2020-03-05 03:00:00 13.6 5 Este 10 Sur 0 -- -- 64
2020-03-05 02:00:00 14 3 Sur 10 Sudeste 0 -- -- 62
2020-03-05 01:00:00 15.3 3 Oeste 14 Sudeste 0 -- -- 58
2020-03-05 00:00:00 15.3 2 Sudeste 11 Sudoeste 0 -- -- 58